ADDS METAR Data INFO
IDs: Format: Raw Decoded Include TAF

Data at: 0733 UTC 18 Oct 2017

KTPF 180715Z AUTO 04008G16KT 10SM CLR 20/19 A3006 RMK AO2
KTPF 180655Z AUTO 04009KT 10SM CLR 20/19 A3006 RMK AO2
KTPF 180635Z AUTO 04009KT 10SM CLR 20/19 A3006 RMK AO2
KTPF 180615Z AUTO 04010KT 10SM CLR 20/19 A3006 RMK AO2
KTPF 180555Z AUTO 04008G15KT 10SM CLR 20/19 A3007 RMK AO2
KTPF 180535Z AUTO 03011KT 10SM CLR 21/19 A3007 RMK AO2
KTPF 180515Z AUTO 04012G15KT 10SM CLR 21/19 A3008 RMK AO2
KTPF 180455Z AUTO 04010G15KT 10SM CLR 21/19 A3009 RMK AO2
KTPF 180435Z AUTO 03009G14KT 10SM SCT022 21/19 A3009 RMK AO2
KTPF 180415Z AUTO 04009KT 10SM OVC022 21/19 A3009 RMK AO2
KTPF 180355Z AUTO 03011G15KT 10SM OVC024 21/19 A3009 RMK AO2
KTPF 180335Z AUTO 04013KT 10SM OVC024 22/20 A3010 RMK AO2
KTPF 180315Z AUTO 04012G16KT 10SM OVC022 22/20 A3010 RMK AO2
KTPF 180255Z AUTO 05011KT 10SM OVC022 22/20 A3009 RMK AO2
KTPF 180235Z AUTO 04012G19KT 10SM OVC022 22/20 A3009 RMK AO2
KTPF 180215Z AUTO 04013G17KT 10SM OVC024 22/20 A3009 RMK AO2
KTPF 180155Z AUTO 04011G15KT 10SM OVC022 22/20 A3009 RMK AO2
KTPF 180135Z AUTO 05012KT 10SM OVC022 22/20 A3008 RMK AO2
KTPF 180115Z AUTO 06010KT 10SM OVC022 22/20 A3008 RMK AO2
KTPF 180055Z AUTO 05012KT 10SM OVC022 22/20 A3008 RMK AO2
KTPF 180035Z AUTO 05011G17KT 10SM SCT020 22/20 A3007 RMK AO2
KTPF 180015Z AUTO 04010KT 10SM CLR 22/20 A3006 RMK AO2
KTPF 172355Z AUTO 05013G18KT 10SM CLR 23/20 A3005 RMK AO2
KTPF 172335Z AUTO 04014G21KT 10SM CLR 23/20 A3004 RMK AO2
KTPF 172315Z AUTO 04011G17KT 10SM CLR 23/21 A3003 RMK AO2
KTPF 172255Z AUTO 03009G19KT 10SM CLR 23/21 A3003 RMK AO2
KTPF 172235Z AUTO 05016G21KT 10SM SCT023 23/21 A3002 RMK AO2
KTPF 172215Z AUTO 04013KT 10SM SCT025 23/21 A3002 RMK AO2
KTPF 172155Z AUTO 05013G18KT 10SM CLR 24/21 A3002 RMK AO2
KTPF 172135Z AUTO 05014G20KT 10SM BKN019 24/21 A3002 RMK AO2
KTPF 172115Z AUTO 04013G19KT 10SM BKN019 24/21 A3001 RMK AO2
KTPF 172055Z AUTO 05010KT 10SM SCT019 25/21 A3002 RMK AO2
KTPF 172035Z AUTO 05011KT 10SM SCT019 25/21 A3001 RMK AO2
KTPF 172015Z AUTO 05012G15KT 10SM CLR 25/22 A3002 RMK AO2
KTPF 171955Z AUTO 05011KT 10SM SCT020 24/21 A3002 RMK AO2
KTPF 171935Z AUTO 05011KT 10SM SCT017 SCT085 25/22 A3002 RMK AO2
KTPF 171915Z AUTO 05010KT 10SM SCT017 24/22 A3002 RMK AO2
KTPF 171855Z AUTO 05010G14KT 10SM SCT018 25/22 A3003 RMK AO2
KTPF 171835Z AUTO 05011G19KT 10SM BKN018 24/22 A3003 RMK AO2
KTPF 171815Z AUTO 05011KT 10SM SCT016 SCT033 BKN043 24/22 A3004 RMK AO2
KTPF 171755Z AUTO 04013G18KT 10SM BKN016 BKN033 BKN050 24/22 A3004 RMK AO2
KTPF 171735Z AUTO 04012G17KT 10SM BKN016 24/22 A3004 RMK AO2
KTPF 171715Z AUTO 04010KT 10SM BKN014 24/22 A3006 RMK AO2
KTPF 171655Z AUTO 05010G15KT 10SM OVC014 24/22 A3006 RMK AO2
KTPF 171635Z AUTO 05011KT 10SM OVC012 24/24 A3006 RMK AO2
KTPF 171615Z AUTO 05011G17KT 10SM OVC012 23/23 A3007 RMK AO2
KTPF 171555Z AUTO 05012G15KT 10SM OVC010 23/23 A3007 RMK AO2
KTPF 171535Z AUTO 05010KT 10SM BKN010 23/23 A3007 RMK AO2
KTPF 171515Z AUTO 05012KT 10SM OVC008 22/22 A3007 RMK AO2
KTPF 171455Z AUTO 05011KT 10SM BKN008 22/22 A3007 RMK AO2
KTPF 171435Z AUTO 06012KT 10SM BKN008 22/22 A3007 RMK AO2
KTPF 171415Z AUTO 04012KT 10SM BKN008 22/22 A3007 RMK AO2
KTPF 171355Z AUTO 04011KT 10SM -DZ SCT008 SCT024 BKN065 A3007 RMK AO2
KTPF 171335Z AUTO 04010G14KT 10SM -RA SCT008 SCT027 BKN070 21/21 A3006 RMK AO2
KTPF 171315Z AUTO 05011KT 10SM BKN008 A3006 RMK AO2
KTPF 171255Z AUTO 04009G18KT 10SM -RA BKN008 A3005 RMK AO2 P0001
KTPF 171235Z AUTO 04014KT 10SM SCT003 BKN008 A3004 RMK AO2 P0001
KTPF 171215Z AUTO 04011KT 10SM BKN008 BKN110 A3004 RMK AO2
KTPF 171155Z AUTO 04013G17KT 10SM BKN008 BKN100 A3004 RMK AO2
KTPF 171135Z AUTO 04011G16KT 10SM BKN006 BKN045 BKN090 A3004 RMK AO2
KTPF 171115Z AUTO 05013G16KT 10SM SCT006 SCT045 BKN090 A3003 RMK AO2
KTPF 171055Z AUTO 06013KT 10SM -DZ BKN006 BKN047 BKN060 A3003 RMK AO2 P0027
KTPF 171035Z AUTO 06012KT 7SM RA SCT004 BKN022 OVC075 A3002 RMK AO2 P0026
KTPF 171015Z AUTO 06016KT 2SM RA SCT011 BKN020 OVC036 A3001 RMK AO2 P0019
KTPF 170955Z AUTO 03010KT 2SM +RA BKN009 OVC014 21/21 A3001 RMK AO2 P0086
KTPF 170935Z AUTO 35013G19KT 4SM +RA BKN007 OVC012 21/21 A3001 RMK AO2 P0011
KTPF 170915Z AUTO 04013KT 5SM -RA BKN009 BKN017 OVC026 21/21 A2998 RMK AO2 P0001
KTPF 170855Z AUTO 03010G17KT 10SM SCT009 BKN018 OVC026 23/23 A2997 RMK AO2
KTPF 170835Z AUTO 05006KT 10SM -DZ BKN026 OVC037 22/22 A2996 RMK AO2
KTPF 170815Z AUTO 07006KT 10SM RA SCT026 BKN037 OVC085 23/23 A2996 RMK AO2
KTPF 170755Z AUTO 05008KT 10SM -RA BKN026 BKN039 OVC060 23/21 A2996 RMK AO2
KTPF 170735Z AUTO 04005KT 10SM OVC026 24/24 A2997 RMK AO2
KTPF 170715Z AUTO 04003KT 10SM BKN028 BKN035 24/23 A2997 RMK AO2
KTPF 170655Z AUTO 02003KT 10SM SCT028 BKN033 BKN046 25/23 A2998 RMK AO2
KTPF 170635Z AUTO 04003KT 10SM BKN033 BKN045 BKN060 25/23 A2998 RMK AO2
KTPF 170615Z AUTO 03003KT 10SM SCT045 24/23 A2998 RMK AO2
KTPF 170555Z AUTO 00000KT 10SM CLR 24/23 A2998 RMK AO2
KTPF 170535Z AUTO 08003KT 10SM CLR 24/23 A2998 RMK AO2
KTPF 170515Z AUTO 08003KT 10SM SCT046 SCT050 24/23 A2998 RMK AO2
KTPF 170455Z AUTO 08003KT 10SM BKN045 BKN050 BKN070 24/23 A2998 RMK AO2
KTPF 170435Z AUTO 03003KT 10SM SCT041 SCT050 BKN060 25/23 A2998 RMK AO2
KTPF 170415Z AUTO 02003KT 10SM CLR 25/23 A2998 RMK AO2
KTPF 170355Z AUTO 04005KT 10SM CLR 25/23 A2999 RMK AO2
KTPF 170335Z AUTO 03004KT 10SM CLR 25/23 A2999 RMK AO2
KTPF 170315Z AUTO 02005KT 10SM CLR 25/23 A2999 RMK AO2
KTPF 170255Z AUTO 03005KT 10SM CLR 25/24 A2999 RMK AO2
KTPF 170235Z AUTO 04005KT 10SM CLR 25/24 A2999 RMK AO2
KTPF 170215Z AUTO 04004KT 10SM CLR 25/24 A2999 RMK AO2
KTPF 170155Z AUTO 03005KT 10SM SCT055 25/23 A2998 RMK AO2
KTPF 170135Z AUTO 01005KT 10SM SCT055 25/23 A2998 RMK AO2
KTPF 170115Z AUTO 35005KT 10SM CLR 26/23 A2997 RMK AO2
KTPF 170055Z AUTO 35006KT 10SM CLR 26/23 A2996 RMK AO2
KTPF 170035Z AUTO 35005KT 10SM CLR 26/22 A2996 RMK AO2
KTPF 170015Z AUTO 34003KT 10SM SCT050 26/22 A2995 RMK AO2
KTPF 162355Z AUTO 34003KT 10SM SCT050 26/22 A2994 RMK AO2
KTPF 162335Z AUTO 00000KT 10SM CLR 25/23 A2993 RMK AO2
KTPF 162315Z AUTO 00000KT 10SM -DZ SCT046 SCT060 BKN120 25/23 A2992 RMK AO2
KTPF 162255Z AUTO 35004KT 7SM RA SCT050 BKN055 OVC070 25/22 A2992 RMK AO2 P0005
KTPF 162235Z AUTO 31010G14KT 10SM BKN050 BKN070 OVC110 28/22 A2991 RMK AO2
KTPF 162215Z AUTO 28005KT 10SM SCT050 SCT060 BKN070 28/22 A2990 RMK AO2
KTPF 162155Z AUTO 27004KT 10SM SCT050 SCT070 SCT080 30/22 A2990 RMK AO2
KTPF 162135Z AUTO 27004KT 10SM CLR 30/22 A2990 RMK AO2
KTPF 162115Z AUTO 28005KT 10SM SCT047 30/22 A2991 RMK AO2
KTPF 162055Z AUTO 31005KT 10SM SCT047 31/21 A2991 RMK AO2
KTPF 162035Z AUTO 26005KT 10SM SCT047 30/21 A2991 RMK AO2
KTPF 162015Z AUTO 28003KT 10SM CLR 30/22 A2991 RMK AO2
KTPF 161955Z AUTO 29005KT 10SM CLR 31/21 A2991 RMK AO2
KTPF 161935Z AUTO 30004KT 10SM SCT047 31/21 A2992 RMK AO2